Aérodrome :
LOGIN :

S'inscrire | Disclaimer

   EN    FR    IT 

 










Légende :    VFR   VFR Marginal   IFR   IFR Intensif   IFR Très Intensif
Visi : 
Plafond : 
>= 8 km
>= 3000ft
5 à 8 km
1000 à 3000 ft
1500m à 5 km
500 à 1000 ft
800 à 1500m
200 à 500 ft
< 800m
< 200 ft
Symboles :   Orages  Brouillard  Fortes neiges  Fortes précipitations  Vent > 20 kt
SIGMETs :   Divers  Orages  Givrage  Turbulence  Onde Orograph.  Cendres Volcan.






- Altitude de l'aérodrome : 39 ft


ETNH - Hohn AB

DERNIER METAR :
  • 071820Z 24008KT 9999 BKN038 SCT100 07/06 Q1006 BLU

METARs EXPIRÉS :
  • 071720Z 24007KT 9999 SCT012 SCT040 07/06 Q1006 BLU+
  • 071620Z 25009KT 9999 FEW020 SCT050 BKN320 08/06 Q1006 BLU+

TAF TAF ETNH
Valide du 07 à 18h jusqu'au 08 à 06h UTC


071700Z 0718/0806 27015G25KT 9999 NSW FEW020 BKN050
TEMPO 0718/0806 29015G30KT 8000 NSW BKN020 BY ETGL



MET'MAP, la Météo Aéronautique d'un coup d'oeil ! - Copyright ORBIFLY Décembre 2007 - Disclaimer

ORBIFLY MET'MAP TEAM :

Programmation & Développement : Alexandra Zaïnal
Sur une idée originale de : Baudouin d'Aumeries
Assistance à la programmation : Marc-Olivier Méhu
Soutien technique & logistique : Manuel Goepfert

Contact : metmap@orbifly.com




SOURCES & CREDITS :

   NOAA